createdAt,value
2023-03-03T00:10:33.050Z,2.05
2023-03-03T00:15:36.895Z,3.88
2023-03-03T00:20:40.450Z,2.10
2023-03-03T00:25:47.324Z,2.17
2023-03-03T00:30:50.610Z,2.10
2023-03-03T00:35:53.424Z,2.30
2023-03-03T00:40:56.145Z,3.00
2023-03-03T00:45:59.190Z,2.25
2023-03-03T00:51:03.307Z,2.30
2023-03-03T00:56:06.250Z,2.50
2023-03-03T01:01:09.255Z,4.53
2023-03-03T01:06:24.450Z,2.97
2023-03-03T01:11:29.021Z,2.55
2023-03-03T01:16:31.738Z,2.63
2023-03-03T01:21:34.787Z,2.28
2023-03-03T01:26:37.587Z,2.30
2023-03-03T01:31:41.123Z,2.35
2023-03-03T01:36:43.958Z,2.22
2023-03-03T01:41:46.644Z,2.13
2023-03-03T01:47:06.147Z,1.73
2023-03-03T01:52:36.334Z,2.10
2023-03-03T01:57:42.996Z,1.67
2023-03-03T02:02:49.436Z,1.65
2023-03-03T02:07:52.267Z,1.60
2023-03-03T02:12:56.875Z,2.17
2023-03-03T02:18:02.762Z,3.23
2023-03-03T02:23:21.002Z,2.95
2023-03-03T02:28:30.240Z,1.50
2023-03-03T02:33:34.347Z,1.90
2023-03-03T02:38:55.769Z,1.92
2023-03-03T02:44:06.193Z,2.03
2023-03-03T02:49:10.848Z,2.08
2023-03-03T02:54:18.084Z,1.98
2023-03-03T02:59:21.387Z,2.30
2023-03-03T03:04:27.357Z,3.35
2023-03-03T03:09:30.891Z,2.83
2023-03-03T03:14:34.833Z,2.05
2023-03-03T03:19:40.199Z,2.80
2023-03-03T03:24:43.278Z,2.00
2023-03-03T03:29:46.326Z,2.83
2023-03-03T03:34:49.154Z,2.38
2023-03-03T03:39:52.279Z,2.10
2023-03-03T03:44:55.880Z,2.05
2023-03-03T03:49:58.938Z,2.10
2023-03-03T03:55:02.079Z,1.88
2023-03-03T04:00:06.880Z,1.83
2023-03-03T04:05:16.945Z,1.80
2023-03-03T04:10:19.859Z,2.03
2023-03-03T04:15:23.537Z,1.75
2023-03-03T04:20:27.195Z,1.80
2023-03-03T04:25:31.483Z,1.85
2023-03-03T04:30:35.119Z,2.40
2023-03-03T04:35:38.240Z,2.22
2023-03-03T04:40:42.521Z,1.80
2023-03-03T04:45:47.158Z,3.08
2023-03-03T04:50:50.487Z,2.38
2023-03-03T04:55:54.185Z,2.58
2023-03-03T05:00:59.068Z,2.53
2023-03-03T05:06:04.839Z,1.90
2023-03-03T05:11:07.800Z,2.20
2023-03-03T05:16:11.122Z,2.25
2023-03-03T05:21:13.937Z,1.60
2023-03-03T05:26:17.565Z,1.52
2023-03-03T05:31:20.378Z,1.90
2023-03-03T05:36:23.157Z,1.60
2023-03-03T05:41:26.328Z,1.60
2023-03-03T05:46:29.037Z,1.70
2023-03-03T05:51:31.842Z,2.30
2023-03-03T05:56:34.663Z,1.58
2023-03-03T06:01:37.373Z,2.15
2023-03-03T06:06:40.207Z,1.83
2023-03-03T06:11:43.002Z,1.90
2023-03-03T06:16:45.798Z,1.98
2023-03-03T06:21:48.509Z,1.77
2023-03-03T06:26:55.272Z,1.90
2023-03-03T06:31:59.486Z,1.80
2023-03-03T06:37:02.264Z,2.65
2023-03-03T06:42:05.067Z,2.47
2023-03-03T06:47:07.881Z,1.90
2023-03-03T06:52:14.116Z,1.75
2023-03-03T06:57:26.716Z,2.10
2023-03-03T07:02:29.499Z,1.73
2023-03-03T07:07:32.317Z,2.38
2023-03-03T07:12:36.171Z,2.80
2023-03-03T07:17:46.332Z,2.00
2023-03-03T07:22:49.415Z,1.40
2023-03-03T07:27:53.799Z,1.65
2023-03-03T07:32:59.118Z,1.83
2023-03-03T07:38:01.929Z,1.77
2023-03-03T07:43:30.536Z,1.60
2023-03-03T07:48:36.908Z,1.70
2023-03-03T07:53:39.921Z,1.60
2023-03-03T07:58:42.721Z,1.80
2023-03-03T08:03:47.284Z,1.95
2023-03-03T08:08:50.029Z,2.03
2023-03-03T08:13:52.698Z,1.40
2023-03-03T08:19:03.587Z,1.65
2023-03-03T08:24:07.007Z,1.48
2023-03-03T08:29:09.726Z,1.90
2023-03-03T08:34:12.391Z,1.67
2023-03-03T08:39:15.093Z,1.77
2023-03-03T08:44:17.856Z,1.70
2023-03-03T08:49:20.867Z,1.85
2023-03-03T08:54:23.542Z,1.52
2023-03-03T08:59:26.374Z,1.65
2023-03-03T09:04:29.064Z,2.55
2023-03-03T09:09:32.087Z,2.65
2023-03-03T09:14:34.961Z,3.67
2023-03-03T09:19:37.941Z,2.10
2023-03-03T09:24:43.000Z,2.85
2023-03-03T09:29:45.752Z,2.00
2023-03-03T09:34:48.604Z,3.17
2023-03-03T09:39:56.034Z,2.00
2023-03-03T09:45:07.931Z,2.80
2023-03-03T09:50:16.451Z,1.73
2023-03-03T09:55:31.473Z,1.73
2023-03-03T10:05:49.030Z,1.58
2023-03-03T10:11:27.614Z,2.17
2023-03-03T10:16:40.677Z,3.45
2023-03-03T10:21:55.644Z,2.40
2023-03-03T10:27:26.223Z,2.45
2023-03-03T10:32:54.974Z,2.70
2023-03-03T10:38:22.576Z,2.33
2023-03-03T10:43:50.195Z,3.03
2023-03-03T10:49:23.287Z,2.85
2023-03-03T10:54:32.644Z,2.20
2023-03-03T11:00:00.126Z,2.22
2023-03-03T11:05:22.073Z,1.80
2023-03-03T11:10:51.894Z,1.88
2023-03-03T11:16:08.057Z,2.70
2023-03-03T11:21:15.998Z,3.05
2023-03-03T11:26:29.721Z,2.67
2023-03-03T11:31:58.282Z,2.47
2023-03-03T11:37:38.989Z,2.70
2023-03-03T11:43:06.388Z,2.22
2023-03-03T11:48:28.752Z,2.40
2023-03-03T11:53:50.306Z,2.60
2023-03-03T11:59:14.360Z,2.10
2023-03-03T12:04:22.206Z,2.90
2023-03-03T12:10:00.015Z,2.92
2023-03-03T12:15:11.798Z,3.03
2023-03-03T12:20:33.825Z,3.42
2023-03-03T12:25:39.478Z,3.47
2023-03-03T12:31:13.798Z,3.60
2023-03-03T12:36:22.855Z,2.95
2023-03-03T12:41:28.683Z,3.05
2023-03-03T12:46:43.374Z,2.67
2023-03-03T12:51:46.033Z,2.40
2023-03-03T12:57:01.450Z,3.10
2023-03-03T13:02:30.448Z,4.97
2023-03-03T13:08:14.553Z,3.10
2023-03-03T13:13:25.006Z,2.70
2023-03-03T13:18:40.144Z,2.58
2023-03-03T13:24:04.203Z,3.03
2023-03-03T13:29:32.600Z,2.10
2023-03-03T13:34:54.041Z,1.70
2023-03-03T13:39:58.578Z,1.70
2023-03-03T13:45:04.207Z,2.42
2023-03-03T13:50:32.051Z,2.60
2023-03-03T13:55:40.870Z,2.72
2023-03-03T14:01:04.978Z,2.88
2023-03-03T14:06:20.855Z,3.03
2023-03-03T14:11:47.554Z,2.80
2023-03-03T14:16:59.883Z,3.40
2023-03-03T14:22:07.422Z,4.10
2023-03-03T14:27:23.982Z,3.05
2023-03-03T14:32:43.192Z,2.97
2023-03-03T14:37:48.115Z,3.10
2023-03-03T14:42:53.784Z,2.53
2023-03-03T14:47:56.636Z,2.20
2023-03-03T14:53:19.138Z,1.90
2023-03-03T14:58:35.481Z,3.13
2023-03-03T15:03:38.773Z,2.70
2023-03-03T15:08:43.160Z,2.88
2023-03-03T15:13:46.125Z,2.90
2023-03-03T15:19:12.046Z,2.20
2023-03-03T15:24:47.652Z,2.00
2023-03-03T15:29:53.439Z,2.33
2023-03-03T15:35:24.624Z,1.98
2023-03-03T15:40:49.733Z,1.38
2023-03-03T15:46:35.012Z,1.50
2023-03-03T15:52:13.761Z,1.20
2023-03-03T15:57:53.779Z,1.50
2023-03-03T16:03:02.931Z,1.00
2023-03-03T16:08:37.980Z,1.80
2023-03-03T16:14:04.605Z,1.27
2023-03-03T16:19:19.522Z,1.02
2023-03-03T16:24:41.214Z,0.85
2023-03-03T16:30:24.708Z,0.98
2023-03-03T16:35:46.281Z,1.15
2023-03-03T16:40:56.198Z,1.30
2023-03-03T16:46:04.889Z,0.95
2023-03-03T16:51:27.616Z,0.88
2023-03-03T16:56:55.265Z,0.93
2023-03-03T17:02:29.181Z,0.80
2023-03-03T17:07:45.507Z,0.57
2023-03-03T17:13:10.388Z,0.57
2023-03-03T17:18:19.696Z,0.98
2023-03-03T17:23:44.537Z,0.90
2023-03-03T17:28:59.492Z,0.60
2023-03-03T17:34:26.749Z,0.50
2023-03-03T17:39:44.715Z,0.55
2023-03-03T17:45:23.086Z,0.50
2023-03-03T17:50:34.920Z,1.08
2023-03-03T17:56:02.777Z,0.43
2023-03-03T18:01:27.251Z,0.50
2023-03-03T18:11:59.452Z,0.43
2023-03-03T18:22:12.298Z,0.50
2023-03-03T18:27:30.021Z,0.90
2023-03-03T18:32:43.448Z,0.80
2023-03-03T18:37:47.221Z,0.90
2023-03-03T18:42:54.225Z,0.83
2023-03-03T18:48:09.977Z,1.13
2023-03-03T18:53:17.755Z,0.57
2023-03-03T18:58:20.392Z,0.63
2023-03-03T19:03:38.048Z,1.10
2023-03-03T19:08:56.773Z,0.90
2023-03-03T19:14:18.010Z,0.88
2023-03-03T19:19:23.755Z,1.27
2023-03-03T19:24:31.401Z,1.30
2023-03-03T19:29:46.505Z,0.73
2023-03-03T19:35:04.104Z,0.90
2023-03-03T19:40:37.432Z,1.60
2023-03-03T19:45:55.464Z,1.45
2023-03-03T19:51:13.042Z,1.52
2023-03-03T19:56:35.469Z,1.45
2023-03-03T20:01:44.330Z,1.35
2023-03-03T20:06:58.128Z,1.30
2023-03-03T20:12:32.839Z,1.60
2023-03-03T20:17:41.406Z,1.60
2023-03-03T20:23:00.953Z,1.30
2023-03-03T20:28:32.840Z,1.05
2023-03-03T20:34:01.493Z,1.13
2023-03-03T20:39:21.803Z,1.80
2023-03-03T20:44:46.031Z,2.10
2023-03-03T20:49:59.150Z,1.55
2023-03-03T20:55:04.809Z,1.35
2023-03-03T21:00:11.188Z,1.27
2023-03-03T21:05:16.612Z,1.55
2023-03-03T21:10:25.093Z,1.67
2023-03-03T21:15:31.559Z,1.60
2023-03-03T21:20:35.546Z,1.60
2023-03-03T21:25:41.239Z,1.80
2023-03-03T21:31:07.798Z,2.05
2023-03-03T21:36:12.535Z,1.90
2023-03-03T21:41:16.869Z,2.45
2023-03-03T21:46:25.104Z,1.63
2023-03-03T21:51:29.169Z,1.90
2023-03-03T21:56:32.006Z,2.05
2023-03-03T22:01:37.135Z,2.13
2023-03-03T22:06:41.179Z,2.22
2023-03-03T22:11:43.908Z,2.75
2023-03-03T22:16:46.607Z,1.95
2023-03-03T22:21:50.579Z,2.20
2023-03-03T22:26:53.195Z,2.00
2023-03-03T22:31:56.001Z,2.60
2023-03-03T22:36:58.776Z,2.00
2023-03-03T22:42:02.192Z,2.83
2023-03-03T22:47:05.063Z,2.90
2023-03-03T22:52:07.800Z,2.70
2023-03-03T22:57:10.476Z,2.65
2023-03-03T23:02:13.479Z,2.15
2023-03-03T23:07:16.323Z,2.83
2023-03-03T23:12:19.032Z,2.72
2023-03-03T23:17:21.849Z,2.50
2023-03-03T23:22:24.546Z,3.05
2023-03-03T23:27:27.268Z,3.53
2023-03-03T23:32:30.110Z,3.22
2023-03-03T23:37:33.110Z,3.50
2023-03-03T23:42:35.803Z,4.10
2023-03-03T23:47:38.646Z,3.05
2023-03-03T23:52:41.623Z,2.30
2023-03-03T23:57:44.460Z,2.53
